Arboles, Colorado
Current Conditions -  °F | °C
As of 10:53 PM on Tuesday 25 Nov 2014 (Local Time) from KDRO Reporting Station
Clear Clear  
Wind Chill: 29°   Ceiling: Unl
Heat Index: 33°   Visibility: 10mi
Dew Point: 19°   Wind: 5mph
Humidity: 56%   Direction: 200°SSW
Pressure: 30.29"   Gusts: NA
Location:  37.03°N, 107.42°W
Report Text: KDRO 260553Z AUTO 20004KT 10SM CLR 01/M07 A3029 RMK AO2 SLP282 T00061072 10039 21006 53006
Loading
Personal Weather Stations






























Interactive Weather Map New forecast layout! Learn more

10-Day Weather Forecast

Advertisements
Track Severe Weather on mobile